Time;durP1;ratioP1;P1;durP2;ratioP2;P2;SDS_P1;SDS_P2;PMS_P1;PMS_P2;Temp;Humidity;BMP_temperature;BMP_pressure;BME280_temperature;BME280_humidity;BME280_pressure;Samples;Min_cycle;Max_cycle;Signal;HPM_P1;HPM_P2
2023/03/25 00:00:52;;;;;;;0.65;0.30;;;22.10;53.80;;;;;;5093492;28;20468;-58
2023/03/25 00:03:25;;;;;;;0.98;0.50;;;22.10;53.50;;;;;;5092856;28;20197;-59
2023/03/25 00:05:56;;;;;;;3.20;0.80;;;22.20;53.50;;;;;;5093485;28;20220;-59
2023/03/25 00:08:27;;;;;;;1.33;0.43;;;22.20;53.60;;;;;;5093905;28;20841;-59
2023/03/25 00:11:00;;;;;;;6.35;5.75;;;22.30;53.70;;;;;;5093558;28;20680;-59
2023/03/25 00:13:31;;;;;;;11.43;8.95;;;22.30;53.80;;;;;;5093317;28;20194;-59
2023/03/25 00:16:02;;;;;;;126.13;102.75;;;22.30;53.90;;;;;;5093546;28;20657;-59
2023/03/25 00:18:36;;;;;;;206.82;161.48;;;22.40;54.30;;;;;;5093723;28;20229;-59
2023/03/25 00:21:09;;;;;;;119.95;90.60;;;22.40;54.60;;;;;;5093471;28;20191;-58
2023/03/25 00:23:41;;;;;;;41.95;31.00;;;22.50;54.60;;;;;;5093641;28;20673;-58
2023/03/25 00:26:11;;;;;;;8.05;6.07;;;22.50;54.40;;;;;;5089529;28;20665;-58
2023/03/25 00:28:42;;;;;;;8.52;6.53;;;22.50;54.00;;;;;;5073196;28;20221;-58
2023/03/25 00:31:15;;;;;;;6.38;5.25;;;22.60;53.90;;;;;;5073012;28;20222;-58
2023/03/25 00:33:49;;;;;;;2.65;1.90;;;22.60;53.70;;;;;;5082518;28;20650;-58
2023/03/25 00:36:20;;;;;;;2.60;1.75;;;22.60;53.60;;;;;;5091078;28;20959;-59
2023/03/25 00:38:52;;;;;;;0.98;0.90;;;22.60;53.50;;;;;;5073496;28;20223;-59
2023/03/25 00:41:24;;;;;;;2.20;0.90;;;22.70;53.40;;;;;;5072773;28;20195;-58
2023/03/25 00:43:56;;;;;;;1.25;0.70;;;22.60;53.30;;;;;;5072951;28;20199;-59
2023/03/25 00:46:28;;;;;;;1.13;0.90;;;22.70;53.40;;;;;;5072348;28;20651;-59
2023/03/25 00:49:01;;;;;;;0.68;0.50;;;22.70;53.40;;;;;;5072172;28;20219;-58
2023/03/25 00:51:32;;;;;;;1.75;0.60;;;22.70;53.50;;;;;;5072326;28;20205;-59
2023/03/25 00:54:03;;;;;;;0.73;0.70;;;22.70;53.60;;;;;;5072342;28;20210;-58
2023/03/25 00:56:34;;;;;;;0.75;0.45;;;22.70;53.80;;;;;;5079125;28;20245;-59
2023/03/25 00:59:05;;;;;;;1.02;0.60;;;22.70;53.80;;;;;;5092337;28;20239;-59
2023/03/25 01:01:38;;;;;;;0.70;0.47;;;22.70;53.70;;;;;;5092519;28;20194;-59
2023/03/25 01:04:11;;;;;;;2.55;0.40;;;22.70;53.40;;;;;;5092637;28;20284;-59
2023/03/25 01:06:43;;;;;;;0.95;0.30;;;22.70;52.90;;;;;;5092227;28;20198;-59
2023/03/25 01:09:15;;;;;;;0.30;0.28;;;22.70;52.60;;;;;;5091834;28;20210;-58
2023/03/25 01:11:47;;;;;;;1.25;0.20;;;22.60;52.30;;;;;;5091818;28;20587;-59
2023/03/25 01:14:19;;;;;;;0.20;0.20;;;22.60;52.10;;;;;;5091615;28;20194;-59
2023/03/25 01:16:50;;;;;;;0.52;0.30;;;22.60;51.90;;;;;;5091349;28;20198;-59
2023/03/25 01:19:24;;;;;;;0.20;0.20;;;22.60;51.60;;;;;;5091797;28;20218;-58
2023/03/25 01:21:55;;;;;;;0.50;0.20;;;22.60;51.40;;;;;;5092424;28;20206;-58
2023/03/25 01:24:25;;;;;;;1.77;0.30;;;22.60;51.30;;;;;;5092563;28;20194;-58
2023/03/25 01:27:00;;;;;;;0.75;0.30;;;22.50;51.10;;;;;;5092391;28;20596;-58
2023/03/25 01:29:30;;;;;;;1.48;0.40;;;22.50;51.00;;;;;;5091956;28;20262;-58
2023/03/25 01:32:01;;;;;;;0.65;0.20;;;22.50;50.90;;;;;;5092189;28;20194;-58
2023/03/25 01:34:38;;;;;;;0.50;0.20;;;22.50;50.80;;;;;;5092064;28;20194;-58
2023/03/25 01:37:09;;;;;;;0.30;0.30;;;22.40;50.70;;;;;;5092114;28;20194;-58
2023/03/25 01:39:40;;;;;;;0.25;0.20;;;22.50;50.70;;;;;;5091131;28;20222;-58
2023/03/25 01:42:12;;;;;;;0.10;0.10;;;22.40;50.70;;;;;;5085995;28;20194;-58
2023/03/25 01:45:18;;;;;;;0.20;0.13;;;22.40;50.70;;;;;;5071162;28;20624;-58
2023/03/25 01:47:51;;;;;;;0.20;0.20;;;22.40;50.80;;;;;;5070874;28;20219;-58
2023/03/25 01:50:27;;;;;;;0.20;0.20;;;22.40;50.80;;;;;;5071231;28;20248;-58
2023/03/25 01:53:01;;;;;;;0.77;0.35;;;22.40;50.90;;;;;;5071396;28;20839;-58
2023/03/25 01:55:32;;;;;;;0.93;0.30;;;22.40;51.00;;;;;;5071441;28;20604;-58
2023/03/25 01:58:06;;;;;;;0.98;0.40;;;22.40;51.00;;;;;;5090191;28;20222;-58
2023/03/25 02:00:37;;;;;;;0.40;0.40;;;22.40;51.10;;;;;;5091664;28;20206;-58
2023/03/25 02:03:09;;;;;;;0.75;0.40;;;22.50;51.10;;;;;;5070510;28;20195;-58
2023/03/25 02:05:48;;;;;;;0.30;0.30;;;22.50;51.10;;;;;;5071140;28;20674;-58
2023/03/25 02:08:20;;;;;;;2.35;0.40;;;22.40;51.10;;;;;;5070626;28;20219;-58
2023/03/25 02:10:51;;;;;;;1.20;0.55;;;22.50;51.10;;;;;;5081866;28;20182;-58
2023/03/25 02:13:22;;;;;;;0.47;0.40;;;22.40;51.10;;;;;;5091558;28;20565;-58
2023/03/25 02:16:08;;;;;;;1.02;0.50;;;22.40;51.10;;;;;;5091428;28;20198;-58
2023/03/25 02:18:48;;;;;;;1.65;0.40;;;22.50;51.10;;;;;;5091599;28;20234;-58
2023/03/25 02:21:57;;;;;;;1.15;0.50;;;22.50;51.10;;;;;;5091370;28;20190;-58
2023/03/25 02:25:03;;;;;;;1.50;0.60;;;22.50;51.20;;;;;;5087179;28;20198;-58
2023/03/25 02:27:47;;;;;;;1.23;0.60;;;22.50;51.10;;;;;;5076795;28;20686;-58
2023/03/25 02:30:58;;;;;;;0.77;0.60;;;22.60;51.20;;;;;;5086902;28;20212;-58
2023/03/25 02:33:52;;;;;;;1.00;0.70;;;22.50;51.20;;;;;;5042477;28;20561;-58
2023/03/25 02:36:57;;;;;;;1.02;0.68;;;22.60;51.30;;;;;;5071105;28;20592;-58
2023/03/25 02:39:34;;;;;;;1.15;0.70;;;22.60;51.30;;;;;;5039699;28;20230;-58
2023/03/25 02:42:10;;;;;;;2.05;1.05;;;22.60;51.30;;;;;;5070788;28;20565;-58
2023/03/25 02:44:43;;;;;;;1.08;0.90;;;22.60;51.30;;;;;;5070564;28;20677;-58
2023/03/25 02:47:19;;;;;;;1.00;0.80;;;22.60;51.30;;;;;;5071043;28;20199;-58
2023/03/25 02:49:53;;;;;;;1.67;0.80;;;22.60;51.30;;;;;;5071248;28;20202;-58
2023/03/25 02:52:29;;;;;;;1.33;0.70;;;22.60;51.30;;;;;;5074879;28;20198;-58
2023/03/25 02:55:04;;;;;;;1.75;0.90;;;22.70;51.30;;;;;;5074760;28;20197;-58
2023/03/25 02:57:37;;;;;;;1.38;0.57;;;22.70;51.40;;;;;;5090295;28;20253;-58
2023/03/25 03:00:14;;;;;;;0.82;0.80;;;22.70;51.40;;;;;;5095169;28;20218;-58
2023/03/25 03:02:51;;;;;;;1.48;0.82;;;22.70;51.40;;;;;;5095431;28;20194;-58
2023/03/25 03:05:27;;;;;;;1.50;0.95;;;22.70;51.40;;;;;;5095377;28;20658;-58
2023/03/25 03:08:13;;;;;;;2.35;1.00;;;22.70;51.40;;;;;;5095106;28;20685;-58
2023/03/25 03:10:52;;;;;;;1.30;1.00;;;22.70;51.30;;;;;;5095102;28;20198;-58
2023/03/25 03:13:31;;;;;;;1.65;1.00;;;22.70;51.30;;;;;;5094358;28;20239;-58
2023/03/25 03:16:09;;;;;;;2.42;1.08;;;22.70;51.20;;;;;;5094710;28;20237;-58
2023/03/25 03:18:50;;;;;;;1.13;0.90;;;22.70;51.20;;;;;;5094195;28;20226;-58
2023/03/25 03:21:25;;;;;;;2.72;1.05;;;22.70;51.20;;;;;;5094597;28;20251;-60
2023/03/25 03:24:01;;;;;;;2.17;1.27;;;22.70;51.20;;;;;;5094708;28;20198;-56
2023/03/25 03:26:39;;;;;;;1.65;1.08;;;22.70;51.10;;;;;;5094400;28;20205;-60
2023/03/25 03:29:14;;;;;;;2.05;1.05;;;22.70;51.10;;;;;;5093965;28;20589;-60
2023/03/25 03:31:49;;;;;;;2.50;1.50;;;22.70;51.00;;;;;;5094282;28;20205;-60
2023/03/25 03:34:25;;;;;;;2.50;1.38;;;22.70;51.10;;;;;;5094576;28;20276;-59
2023/03/25 03:36:59;;;;;;;1.65;1.30;;;22.70;51.10;;;;;;5094317;28;20225;-59
2023/03/25 03:39:33;;;;;;;1.55;1.10;;;22.70;51.20;;;;;;5094456;28;20226;-60
2023/03/25 03:42:12;;;;;;;1.80;1.45;;;22.70;51.20;;;;;;5094211;28;20197;-59
2023/03/25 03:44:46;;;;;;;3.78;1.15;;;22.80;51.20;;;;;;5094055;28;20194;-59
2023/03/25 03:47:20;;;;;;;2.08;1.30;;;22.70;51.20;;;;;;5076107;28;20187;-58
2023/03/25 03:49:54;;;;;;;3.78;1.40;;;22.80;51.30;;;;;;5074256;28;20198;-58
2023/03/25 03:52:32;;;;;;;1.70;1.20;;;22.80;51.20;;;;;;5073698;28;20203;-58
2023/03/25 03:55:05;;;;;;;1.40;0.93;;;22.80;51.20;;;;;;5073500;28;20194;-59
2023/03/25 03:57:41;;;;;;;5.03;1.50;;;22.90;51.30;;;;;;5089140;28;20226;-59
2023/03/25 04:00:17;;;;;;;2.25;1.35;;;22.90;51.30;;;;;;5093735;28;20233;-58
2023/03/25 04:02:52;;;;;;;2.63;1.20;;;22.90;51.20;;;;;;5092674;28;20684;-58
2023/03/25 04:05:29;;;;;;;1.48;1.13;;;22.90;51.20;;;;;;5093832;28;20200;-58
2023/03/25 04:08:03;;;;;;;1.33;1.08;;;22.90;51.20;;;;;;5093314;28;20555;-58
2023/03/25 04:10:41;;;;;;;2.10;1.20;;;22.90;51.30;;;;;;5093339;28;20194;-59
2023/03/25 04:13:16;;;;;;;2.10;1.00;;;23.00;51.30;;;;;;5093555;28;20553;-58
2023/03/25 04:15:47;;;;;;;1.60;1.10;;;23.00;51.30;;;;;;5093770;28;20657;-58
2023/03/25 04:18:22;;;;;;;2.90;1.20;;;23.00;51.30;;;;;;5093255;28;20218;-59
2023/03/25 04:20:52;;;;;;;3.53;0.95;;;23.00;51.20;;;;;;5092910;28;20200;-59
2023/03/25 04:23:23;;;;;;;2.10;1.20;;;23.00;51.20;;;;;;5093581;28;20196;-59
2023/03/25 04:25:54;;;;;;;2.17;1.10;;;23.00;51.20;;;;;;5091711;28;20198;-58
2023/03/25 04:28:26;;;;;;;1.50;0.90;;;23.00;51.20;;;;;;5075953;28;20211;-58
2023/03/25 04:30:59;;;;;;;2.05;1.10;;;23.10;51.20;;;;;;5077374;28;20194;-59
2023/03/25 04:33:30;;;;;;;2.47;1.15;;;23.10;51.10;;;;;;5092327;28;20194;-58
2023/03/25 04:36:02;;;;;;;1.67;0.98;;;23.10;51.10;;;;;;5092564;28;20194;-59
2023/03/25 04:38:33;;;;;;;1.60;1.00;;;23.10;51.20;;;;;;5093360;28;20719;-58
2023/03/25 04:41:05;;;;;;;1.90;1.02;;;23.10;51.10;;;;;;5093400;28;20209;-59
2023/03/25 04:43:38;;;;;;;1.88;0.95;;;23.10;51.10;;;;;;5093141;28;20197;-59
2023/03/25 04:46:12;;;;;;;2.63;1.35;;;23.20;51.10;;;;;;5093133;28;20255;-60
2023/03/25 04:48:43;;;;;;;2.28;1.00;;;23.20;51.10;;;;;;5093141;28;20222;-59
2023/03/25 04:51:18;;;;;;;1.58;1.20;;;23.20;51.00;;;;;;5093091;28;20233;-59
2023/03/25 04:53:49;;;;;;;2.20;0.82;;;23.20;51.10;;;;;;5093106;28;20280;-58
2023/03/25 04:56:22;;;;;;;1.02;0.93;;;23.20;51.10;;;;;;5087740;28;20195;-58
2023/03/25 04:58:54;;;;;;;1.52;1.00;;;23.20;51.00;;;;;;5072453;28;20227;-58
2023/03/25 05:01:30;;;;;;;1.35;1.08;;;23.20;51.00;;;;;;5072472;28;20202;-59
2023/03/25 05:04:04;;;;;;;2.03;0.90;;;23.20;51.00;;;;;;5071958;28;20234;-59
2023/03/25 05:06:37;;;;;;;2.15;0.90;;;23.30;51.10;;;;;;5071645;28;20205;-59
2023/03/25 05:09:08;;;;;;;1.77;0.90;;;23.30;51.10;;;;;;5076389;28;20218;-58
2023/03/25 05:11:40;;;;;;;1.50;1.02;;;23.30;51.20;;;;;;5087614;28;20654;-58
2023/03/25 05:14:17;;;;;;;1.15;1.05;;;23.30;51.10;;;;;;5090192;28;20717;-58
2023/03/25 05:16:48;;;;;;;1.70;1.10;;;23.30;51.10;;;;;;5090727;28;20193;-58
2023/03/25 05:19:19;;;;;;;1.58;1.00;;;23.30;51.10;;;;;;5090702;28;20724;-58
2023/03/25 05:21:51;;;;;;;1.58;0.80;;;23.40;51.10;;;;;;5090528;28;20685;-58
2023/03/25 05:24:21;;;;;;;1.20;0.90;;;23.40;51.10;;;;;;5091873;28;20236;-58
2023/03/25 05:26:53;;;;;;;1.45;1.17;;;23.40;51.10;;;;;;5092000;28;20198;-58
2023/03/25 05:29:26;;;;;;;2.10;1.10;;;23.40;51.10;;;;;;5092627;28;20229;-58
2023/03/25 05:31:56;;;;;;;1.95;1.00;;;23.50;51.10;;;;;;5092131;28;20267;-56
2023/03/25 05:34:28;;;;;;;1.73;1.10;;;23.50;51.00;;;;;;5092057;28;20194;-58
2023/03/25 05:36:59;;;;;;;1.55;1.00;;;23.50;51.00;;;;;;5091935;28;20198;-58
2023/03/25 05:39:30;;;;;;;1.15;0.98;;;23.50;51.00;;;;;;5091754;28;20217;-58
2023/03/25 05:42:01;;;;;;;1.55;1.00;;;23.60;51.00;;;;;;5092060;28;20198;-58
2023/03/25 05:44:34;;;;;;;1.63;1.00;;;23.60;51.00;;;;;;5092267;28;20202;-58
2023/03/25 05:47:05;;;;;;;2.35;1.08;;;23.60;51.00;;;;;;5092041;28;20198;-59
2023/03/25 05:49:35;;;;;;;1.35;1.00;;;23.70;51.00;;;;;;5091210;28;20697;-58
2023/03/25 05:52:07;;;;;;;1.63;1.00;;;23.70;51.00;;;;;;5086970;28;20198;-58
2023/03/25 05:54:40;;;;;;;1.38;0.88;;;23.70;50.90;;;;;;5071027;28;20213;-59
2023/03/25 05:57:11;;;;;;;1.48;0.85;;;23.70;50.90;;;;;;5083577;28;20208;-59
2023/03/25 05:59:44;;;;;;;1.20;0.90;;;23.70;50.90;;;;;;5091952;28;20557;-58
2023/03/25 06:02:16;;;;;;;1.40;0.80;;;23.70;50.80;;;;;;5091898;28;20194;-58
2023/03/25 06:04:50;;;;;;;1.10;0.88;;;23.80;50.80;;;;;;5091274;28;20198;-58
2023/03/25 06:07:21;;;;;;;1.05;0.75;;;23.80;50.70;;;;;;5091283;28;20539;-59
2023/03/25 06:09:53;;;;;;;2.17;0.95;;;23.80;50.70;;;;;;5091589;28;20194;-59
2023/03/25 06:12:26;;;;;;;1.00;0.90;;;23.80;50.70;;;;;;5091743;28;20594;-58
2023/03/25 06:14:58;;;;;;;1.88;0.90;;;23.80;50.70;;;;;;5092025;28;20255;-58
2023/03/25 06:17:29;;;;;;;1.27;0.80;;;23.80;50.70;;;;;;5091522;28;20201;-59
2023/03/25 06:20:01;;;;;;;2.10;0.98;;;23.80;50.70;;;;;;5091293;28;20233;-58
2023/03/25 06:22:32;;;;;;;0.85;0.75;;;23.80;50.70;;;;;;5090907;28;20786;-58
2023/03/25 06:25:03;;;;;;;0.82;0.75;;;23.80;50.60;;;;;;5091233;28;20201;-59
2023/03/25 06:27:34;;;;;;;1.00;0.88;;;23.80;50.60;;;;;;5073505;28;20194;-58
2023/03/25 06:30:07;;;;;;;1.30;0.95;;;23.80;50.70;;;;;;5083936;28;20240;-59
2023/03/25 06:32:38;;;;;;;1.13;0.80;;;23.80;50.60;;;;;;5091382;28;20194;-58
2023/03/25 06:35:11;;;;;;;1.52;0.80;;;23.80;50.60;;;;;;5091412;28;20247;-56
2023/03/25 06:37:41;;;;;;;0.80;0.70;;;23.80;50.50;;;;;;5090672;28;20206;-58
2023/03/25 06:40:13;;;;;;;1.50;0.90;;;23.80;50.50;;;;;;5090921;28;20229;-58
2023/03/25 06:42:44;;;;;;;1.63;0.90;;;23.80;50.50;;;;;;5091421;28;20200;-58
2023/03/25 06:45:17;;;;;;;1.08;0.80;;;23.80;50.60;;;;;;5091293;28;20194;-59
2023/03/25 06:47:48;;;;;;;0.60;0.60;;;23.80;50.60;;;;;;5091226;28;20218;-59
2023/03/25 06:50:18;;;;;;;1.00;0.88;;;23.80;50.50;;;;;;5091348;28;20201;-59
2023/03/25 06:52:49;;;;;;;0.90;0.75;;;23.80;50.50;;;;;;5090927;28;20201;-59
2023/03/25 06:55:20;;;;;;;1.38;0.80;;;23.80;50.50;;;;;;5091003;28;20216;-59
2023/03/25 06:57:50;;;;;;;1.60;0.70;;;23.80;50.50;;;;;;5073234;28;20218;-59
2023/03/25 07:00:25;;;;;;;0.70;0.70;;;23.80;50.50;;;;;;5070674;28;20225;-59
2023/03/25 07:02:57;;;;;;;1.05;0.70;;;23.80;50.50;;;;;;5071157;28;20259;-59
2023/03/25 07:05:28;;;;;;;1.23;0.80;;;23.80;50.50;;;;;;5070797;28;20282;-60
2023/03/25 07:07:59;;;;;;;1.30;0.90;;;23.80;50.40;;;;;;5070906;28;20219;-58
2023/03/25 07:10:29;;;;;;;1.48;1.10;;;23.80;50.40;;;;;;5071120;28;20375;-60
2023/03/25 07:13:00;;;;;;;1.25;0.90;;;23.80;50.40;;;;;;5071059;28;20658;-59
2023/03/25 07:15:33;;;;;;;0.80;0.80;;;23.80;50.40;;;;;;5070760;28;20214;-59
2023/03/25 07:18:03;;;;;;;0.98;0.70;;;23.80;50.50;;;;;;5070902;28;20691;-59
2023/03/25 07:20:34;;;;;;;1.13;0.70;;;23.80;50.40;;;;;;5070825;28;20234;-59
2023/03/25 07:23:05;;;;;;;0.80;0.80;;;23.80;50.40;;;;;;5070530;28;20199;-59
2023/03/25 07:25:35;;;;;;;0.98;0.90;;;23.80;50.40;;;;;;5070169;28;20195;-59
2023/03/25 07:28:06;;;;;;;1.13;0.80;;;23.80;50.50;;;;;;5071211;28;20276;-58
2023/03/25 07:30:39;;;;;;;0.82;0.70;;;23.80;50.50;;;;;;5070606;28;20718;-59
2023/03/25 07:33:10;;;;;;;1.92;1.00;;;23.80;50.40;;;;;;5085317;28;20205;-59
2023/03/25 07:35:40;;;;;;;1.13;0.90;;;23.80;50.40;;;;;;5090523;28;20600;-59
2023/03/25 07:38:11;;;;;;;1.20;0.80;;;23.80;50.40;;;;;;5093128;28;20218;-59
2023/03/25 07:40:42;;;;;;;1.27;0.90;;;23.80;50.40;;;;;;5094659;28;20229;-58
2023/03/25 07:43:12;;;;;;;1.23;0.88;;;23.70;50.30;;;;;;5094661;28;20191;-59
2023/03/25 07:45:45;;;;;;;0.98;0.80;;;23.70;50.20;;;;;;5091218;28;20199;-58
2023/03/25 07:48:15;;;;;;;1.00;0.80;;;23.70;50.20;;;;;;5094214;28;20214;-59
2023/03/25 07:50:48;;;;;;;1.20;0.88;;;23.70;50.20;;;;;;5094229;28;20197;-59
2023/03/25 07:53:18;;;;;;;1.10;0.70;;;23.70;50.20;;;;;;5094057;28;20205;-59
2023/03/25 07:55:49;;;;;;;0.95;0.90;;;23.70;50.30;;;;;;5094123;28;20198;-59
2023/03/25 07:58:20;;;;;;;1.27;1.00;;;23.70;50.30;;;;;;5093950;28;20310;-59
2023/03/25 08:00:53;;;;;;;1.02;0.77;;;23.70;50.30;;;;;;5093994;28;20229;-58
2023/03/25 08:03:24;;;;;;;1.50;0.93;;;23.70;50.30;;;;;;5076439;28;20198;-59
2023/03/25 08:05:54;;;;;;;0.57;0.57;;;23.70;50.40;;;;;;5089427;28;20245;-59
2023/03/25 08:08:25;;;;;;;1.00;0.80;;;23.70;50.30;;;;;;5080702;28;20730;-59
2023/03/25 08:10:56;;;;;;;0.93;0.77;;;23.70;50.30;;;;;;5089640;28;20666;-59
2023/03/25 08:13:26;;;;;;;1.67;1.08;;;23.70;50.30;;;;;;5093218;28;20555;-59
2023/03/25 08:15:59;;;;;;;1.40;0.80;;;23.60;50.20;;;;;;5093044;28;20426;-58
2023/03/25 08:18:30;;;;;;;1.52;0.80;;;23.70;50.30;;;;;;5092549;28;20225;-59
2023/03/25 08:21:00;;;;;;;1.13;0.90;;;23.60;50.20;;;;;;5082457;28;20211;-59
2023/03/25 08:23:35;;;;;;;1.15;1.00;;;23.70;50.30;;;;;;5089576;28;20190;-59
2023/03/25 08:26:07;;;;;;;1.27;0.70;;;23.60;50.20;;;;;;5089255;28;20198;-59
2023/03/25 08:28:38;;;;;;;1.23;0.90;;;23.60;50.30;;;;;;5073055;28;20215;-59
2023/03/25 08:31:11;;;;;;;1.35;1.00;;;23.60;50.20;;;;;;5089519;28;20271;-59
2023/03/25 08:33:41;;;;;;;1.52;0.90;;;23.60;50.20;;;;;;5080954;28;20198;-59
2023/03/25 08:36:13;;;;;;;1.00;0.80;;;23.60;50.20;;;;;;5089840;28;20630;-59
2023/03/25 08:38:44;;;;;;;1.10;1.00;;;23.60;50.30;;;;;;5091729;28;20279;-59
2023/03/25 08:41:14;;;;;;;1.08;0.85;;;23.60;50.30;;;;;;5092233;28;20222;-59
2023/03/25 08:43:45;;;;;;;0.88;0.80;;;23.60;50.30;;;;;;5092140;28;20206;-59
2023/03/25 08:46:18;;;;;;;0.93;0.80;;;23.50;50.80;;;;;;5091598;28;20217;-59
2023/03/25 08:48:48;;;;;;;0.70;0.70;;;23.60;50.30;;;;;;5091887;28;20217;-59
2023/03/25 08:51:19;;;;;;;2.28;1.00;;;23.50;50.30;;;;;;5092535;28;20721;-59
2023/03/25 08:53:50;;;;;;;1.45;1.15;;;23.50;50.20;;;;;;5091726;28;20202;-59
2023/03/25 08:56:21;;;;;;;1.30;1.00;;;23.50;50.20;;;;;;5086295;28;20195;-59
2023/03/25 08:58:51;;;;;;;1.50;1.05;;;23.50;50.20;;;;;;5071479;28;20215;-57
2023/03/25 09:01:24;;;;;;;1.55;1.00;;;23.50;50.30;;;;;;5087590;28;20217;-59
2023/03/25 09:03:55;;;;;;;1.38;0.88;;;23.50;50.20;;;;;;5070251;28;20662;-59
2023/03/25 09:06:26;;;;;;;1.20;0.88;;;23.50;50.20;;;;;;5088592;28;20191;-59
2023/03/25 09:08:57;;;;;;;1.17;0.88;;;23.50;50.30;;;;;;5090984;28;20214;-59
2023/03/25 09:11:28;;;;;;;3.13;1.08;;;23.40;50.20;;;;;;5091786;28;20233;-59
2023/03/25 09:13:58;;;;;;;1.52;0.85;;;23.50;50.20;;;;;;5088866;28;20776;-59
2023/03/25 09:16:31;;;;;;;1.60;1.02;;;23.40;50.20;;;;;;5088429;28;20697;-59
2023/03/25 09:19:05;;;;;;;0.85;0.80;;;23.40;50.20;;;;;;5092349;28;20228;-59
2023/03/25 09:21:36;;;;;;;1.10;0.90;;;23.40;50.20;;;;;;5089936;28;20225;-59
2023/03/25 09:24:06;;;;;;;1.13;0.98;;;23.40;50.20;;;;;;5091682;28;20221;-59
2023/03/25 09:26:38;;;;;;;0.85;0.70;;;23.40;50.20;;;;;;5090173;28;20205;-59
2023/03/25 09:29:09;;;;;;;1.20;0.82;;;23.40;50.20;;;;;;5092312;28;20213;-59
2023/03/25 09:31:41;;;;;;;1.42;0.82;;;23.40;50.20;;;;;;5091510;28;20584;-59
2023/03/25 09:34:12;;;;;;;1.17;0.80;;;23.40;50.20;;;;;;5091311;28;20194;-59
2023/03/25 09:36:44;;;;;;;1.00;0.80;;;23.40;50.20;;;;;;5092021;28;20195;-59
2023/03/25 09:39:15;;;;;;;0.93;0.80;;;23.40;50.20;;;;;;5090566;28;20214;-59
2023/03/25 09:42:12;;;;;;;1.00;0.90;;;23.40;50.20;;;;;;5090824;28;20776;-59
2023/03/25 09:44:54;;;;;;;1.15;0.90;;;23.40;50.30;;;;;;5090810;28;20190;-59
2023/03/25 09:47:28;;;;;;;1.08;0.80;;;23.40;50.20;;;;;;5091314;28;20197;-59
2023/03/25 09:50:01;;;;;;;1.10;0.70;;;23.40;50.20;;;;;;5091523;28;20649;-59
2023/03/25 09:52:38;;;;;;;0.80;0.80;;;23.30;50.20;;;;;;5090982;28;20190;-60
2023/03/25 09:55:12;;;;;;;1.20;1.10;;;23.30;50.30;;;;;;5082490;28;20193;-59
2023/03/25 09:57:49;;;;;;;1.25;0.85;;;23.30;50.30;;;;;;5086559;28;20201;-59
2023/03/25 10:00:23;;;;;;;1.25;0.80;;;23.30;50.30;;;;;;5089600;28;20220;-59
2023/03/25 10:03:01;;;;;;;1.88;1.02;;;23.30;50.30;;;;;;5090714;28;20281;-59
2023/03/25 10:06:00;;;;;;;0.80;0.70;;;23.30;50.30;;;;;;5091156;28;20186;-58
2023/03/25 10:08:40;;;;;;;0.95;0.73;;;23.30;50.30;;;;;;5090970;28;20648;-59
2023/03/25 10:11:20;;;;;;;1.08;0.70;;;23.30;50.30;;;;;;5090920;28;20202;-59
2023/03/25 10:13:56;;;;;;;1.80;1.10;;;23.30;50.30;;;;;;5090254;28;20194;-59
2023/03/25 10:16:35;;;;;;;0.77;0.70;;;23.20;50.20;;;;;;5090946;28;20190;-58
2023/03/25 10:19:22;;;;;;;1.00;0.63;;;23.20;50.20;;;;;;5090506;28;20218;-59
2023/03/25 10:21:59;;;;;;;0.90;0.60;;;23.20;50.30;;;;;;5090803;28;20574;-59
2023/03/25 10:24:33;;;;;;;1.50;0.90;;;23.20;50.20;;;;;;5089969;28;20205;-59
2023/03/25 10:27:07;;;;;;;1.10;0.73;;;23.20;50.20;;;;;;5081303;28;20194;-59
2023/03/25 10:29:42;;;;;;;1.10;0.80;;;23.20;50.20;;;;;;5075351;28;20747;-59
2023/03/25 10:32:18;;;;;;;1.02;0.80;;;23.20;50.20;;;;;;5090093;28;20198;-59
2023/03/25 10:34:54;;;;;;;1.15;0.80;;;23.10;50.20;;;;;;5089618;28;20558;-59
2023/03/25 10:37:31;;;;;;;1.13;0.90;;;23.10;50.30;;;;;;5090133;28;20200;-59
2023/03/25 10:40:15;;;;;;;1.20;0.90;;;23.10;50.30;;;;;;5090315;28;20198;-58
2023/03/25 10:42:56;;;;;;;1.05;0.80;;;23.10;50.20;;;;;;5089591;28;20546;-58
2023/03/25 10:45:28;;;;;;;0.95;0.90;;;23.10;50.30;;;;;;5090395;28;20240;-55
2023/03/25 10:48:05;;;;;;;1.60;1.10;;;23.10;50.30;;;;;;5090637;28;20214;-58
2023/03/25 10:50:38;;;;;;;1.00;0.90;;;23.10;50.30;;;;;;5089594;28;20587;-57
2023/03/25 10:53:11;;;;;;;1.40;1.10;;;23.10;50.40;;;;;;5090580;28;20194;-58
2023/03/25 10:55:44;;;;;;;1.65;0.98;;;23.10;50.30;;;;;;5090608;28;20194;-58
2023/03/25 10:58:20;;;;;;;1.20;0.90;;;23.10;50.40;;;;;;5086791;28;20214;-57
2023/03/25 11:00:51;;;;;;;1.05;0.82;;;23.10;50.40;;;;;;5089834;28;20229;-58
2023/03/25 11:03:26;;;;;;;1.83;0.80;;;23.00;50.30;;;;;;5090189;28;20209;-57
2023/03/25 11:05:59;;;;;;;1.67;1.08;;;23.00;50.30;;;;;;5090332;28;21408;-58
2023/03/25 11:08:30;;;;;;;1.17;0.90;;;23.00;50.30;;;;;;5090038;28;20298;-58
2023/03/25 11:11:03;;;;;;;2.00;0.90;;;23.00;50.30;;;;;;5090702;28;20198;-57
2023/03/25 11:13:33;;;;;;;1.00;0.90;;;23.00;51.00;;;;;;5093719;28;20662;-59
2023/03/25 11:16:05;;;;;;;1.55;1.00;;;23.00;50.40;;;;;;5094416;28;20642;-58
2023/03/25 11:18:39;;;;;;;1.30;1.00;;;23.00;50.40;;;;;;5093901;28;20218;-57
2023/03/25 11:21:15;;;;;;;2.03;1.25;;;23.00;50.50;;;;;;5094446;28;20593;-58
2023/03/25 11:23:48;;;;;;;1.90;0.90;;;22.90;50.40;;;;;;5093569;28;20205;-58
2023/03/25 11:26:23;;;;;;;1.52;1.08;;;23.00;50.50;;;;;;5089788;28;20195;-57
2023/03/25 11:28:56;;;;;;;1.23;0.80;;;22.90;50.40;;;;;;5073627;28;20218;-58
2023/03/25 11:31:31;;;;;;;1.85;1.20;;;22.90;50.40;;;;;;5083009;28;20230;-58
2023/03/25 11:34:07;;;;;;;0.90;0.80;;;22.90;50.40;;;;;;5093881;28;20289;-55
2023/03/25 11:36:41;;;;;;;2.33;1.10;;;22.90;50.40;;;;;;5092888;28;20194;-58
2023/03/25 11:39:19;;;;;;;1.50;0.90;;;22.90;50.40;;;;;;5092961;28;20214;-58
2023/03/25 11:41:51;;;;;;;1.60;1.05;;;22.90;50.40;;;;;;5092842;28;20685;-58
2023/03/25 11:44:27;;;;;;;1.83;1.02;;;22.90;50.40;;;;;;5094041;28;20194;-58
2023/03/25 11:47:00;;;;;;;1.35;1.10;;;22.90;50.40;;;;;;5093290;28;20225;-58
2023/03/25 11:49:34;;;;;;;1.98;1.08;;;22.80;50.40;;;;;;5093056;28;20210;-58
2023/03/25 11:52:09;;;;;;;1.75;1.15;;;22.80;50.40;;;;;;5093241;28;20293;-58
2023/03/25 11:54:41;;;;;;;1.70;1.00;;;22.80;50.50;;;;;;5093307;28;20275;-55
2023/03/25 11:57:17;;;;;;;1.73;1.10;;;22.80;50.50;;;;;;5079690;28;20203;-56
2023/03/25 11:59:49;;;;;;;2.03;1.10;;;22.80;50.50;;;;;;5081486;28;20226;-58
2023/03/25 12:02:27;;;;;;;1.65;0.90;;;22.80;50.50;;;;;;5081286;28;20611;-59
2023/03/25 12:05:02;;;;;;;1.20;1.10;;;22.80;50.50;;;;;;5083772;28;20197;-58
2023/03/25 12:07:44;;;;;;;1.33;1.15;;;22.80;50.60;;;;;;5082974;28;20657;-57
2023/03/25 12:10:20;;;;;;;3.28;1.38;;;22.70;50.60;;;;;;5083610;28;20189;-58
2023/03/25 12:13:00;;;;;;;1.38;1.17;;;22.70;50.50;;;;;;5089461;28;20194;-58
2023/03/25 12:15:39;;;;;;;3.13;1.30;;;22.70;50.50;;;;;;5093391;28;20669;-57
2023/03/25 12:18:29;;;;;;;2.38;1.23;;;22.70;50.50;;;;;;5093077;28;20214;-58
2023/03/25 12:21:06;;;;;;;2.22;1.10;;;22.70;50.50;;;;;;5093171;28;20198;-58
2023/03/25 12:23:46;;;;;;;1.92;1.20;;;22.60;50.50;;;;;;5083674;28;20608;-58
2023/03/25 12:26:19;;;;;;;2.08;0.93;;;22.60;50.50;;;;;;5077869;28;20557;-58
2023/03/25 12:29:15;;;;;;;1.25;1.05;;;22.60;50.50;;;;;;5093414;28;20244;-58
2023/03/25 12:31:58;;;;;;;1.73;1.40;;;22.60;50.50;;;;;;5093895;28;20197;-58
2023/03/25 12:34:41;;;;;;;1.65;1.10;;;22.60;50.60;;;;;;5093185;28;20198;-58
2023/03/25 12:37:25;;;;;;;2.65;1.10;;;22.60;50.60;;;;;;5092954;28;20198;-58
2023/03/25 12:40:17;;;;;;;1.10;1.00;;;22.50;50.50;;;;;;5093443;28;20768;-58
2023/03/25 12:42:57;;;;;;;1.98;1.15;;;22.50;50.50;;;;;;5093391;28;20254;-58
2023/03/25 12:45:44;;;;;;;1.60;1.20;;;22.50;50.60;;;;;;5093127;28;20656;-57
2023/03/25 12:48:25;;;;;;;1.42;0.93;;;22.50;50.60;;;;;;5093228;28;20221;-58
2023/03/25 12:51:02;;;;;;;2.28;1.00;;;22.50;50.60;;;;;;5093143;28;20701;-57
2023/03/25 12:53:48;;;;;;;2.35;1.10;;;22.50;50.60;;;;;;5092710;28;20201;-58
2023/03/25 12:56:42;;;;;;;1.27;0.90;;;22.50;50.60;;;;;;5087776;28;20926;-58
2023/03/25 12:59:42;;;;;;;2.38;1.27;;;22.50;50.60;;;;;;5072460;28;20223;-56
2023/03/25 13:02:24;;;;;;;1.77;1.17;;;22.40;50.60;;;;;;5072626;28;20272;-58
2023/03/25 13:05:07;;;;;;;4.25;1.42;;;22.40;50.60;;;;;;5072821;28;20345;-58
2023/03/25 13:07:41;;;;;;;2.45;1.00;;;22.40;50.60;;;;;;5072413;28;20201;-58
2023/03/25 13:10:18;;;;;;;1.50;0.93;;;22.40;50.70;;;;;;5072519;28;20198;-58
2023/03/25 13:12:54;;;;;;;1.23;1.13;;;22.40;50.70;;;;;;5072574;28;20561;-57
2023/03/25 13:15:29;;;;;;;1.45;1.10;;;22.30;51.30;;;;;;5071837;28;20194;-58
2023/03/25 13:18:03;;;;;;;1.58;1.10;;;22.30;50.70;;;;;;5072161;28;20214;-59
2023/03/25 13:20:38;;;;;;;2.10;1.30;;;22.30;50.70;;;;;;5072244;28;20558;-59
2023/03/25 13:23:14;;;;;;;1.75;0.95;;;22.30;50.70;;;;;;5072083;28;20237;-59